Time;durP1;ratioP1;P1;durP2;ratioP2;P2;SDS_P1;SDS_P2;PMS_P1;PMS_P2;Temp;Humidity;BMP_temperature;BMP_pressure;BME280_temperature;BME280_humidity;BME280_pressure;Samples;Min_cycle;Max_cycle;Signal;HPM_P1;HPM_P2
2021/12/22 00:00:30;;;;;;;11.23;5.70;;;;;;;-1.70;74.52;95323.19;5011800;28;20208;-60
2021/12/22 00:02:57;;;;;;;11.23;5.67;;;;;;;-1.47;73.18;95341.69;5011736;28;20196;-60
2021/12/22 00:05:26;;;;;;;13.63;5.47;;;;;;;-1.29;71.53;95376.09;5011710;28;20666;-65
2021/12/22 00:07:52;;;;;;;11.10;5.70;;;;;;;-1.42;72.59;95353.19;5010552;28;20573;-64
2021/12/22 00:10:26;;;;;;;10.63;5.70;;;;;;;-1.46;74.01;95320.91;5011538;28;20283;-65
2021/12/22 00:12:52;;;;;;;9.17;5.70;;;;;;;-1.26;71.83;95366.88;5012104;28;20235;-60
2021/12/22 00:15:23;;;;;;;9.77;5.33;;;;;;;-1.21;71.08;95377.53;5011552;28;20711;-64
2021/12/22 00:17:49;;;;;;;10.00;5.27;;;;;;;-1.44;72.17;95367.38;5011542;28;20200;-64
2021/12/22 00:20:14;;;;;;;14.00;5.90;;;;;;;-1.50;71.73;95356.75;5010263;28;20660;-63
2021/12/22 00:22:40;;;;;;;9.20;4.90;;;;;;;-1.74;73.02;95349.06;5010323;28;20225;-64
2021/12/22 00:25:06;;;;;;;10.37;4.80;;;;;;;-1.88;74.57;95306.25;5011801;28;20180;-64
2021/12/22 00:27:31;;;;;;;8.83;5.70;;;;;;;-1.65;72.67;95347.19;5015274;28;20245;-60
2021/12/22 00:29:57;;;;;;;10.23;5.17;;;;;;;-1.75;73.13;95336.66;5014128;28;20181;-63
2021/12/22 00:32:32;;;;;;;7.87;4.70;;;;;;;-1.95;74.26;95314.75;5015495;28;20223;-64
2021/12/22 00:34:58;;;;;;;9.43;5.13;;;;;;;-1.79;72.44;95355.03;5014393;28;20209;-60
2021/12/22 00:37:26;;;;;;;7.50;4.70;;;;;;;-1.60;72.29;95362.84;5015340;28;20573;-64
2021/12/22 00:39:53;;;;;;;6.03;4.50;;;;;;;-1.75;72.07;95367.38;5015348;28;20193;-63
2021/12/22 00:42:20;;;;;;;7.23;4.33;;;;;;;-1.91;72.19;95362.81;5015328;28;20221;-63
2021/12/22 00:44:49;;;;;;;11.20;4.30;;;;;;;-2.20;73.55;95336.16;5015059;28;20178;-65
2021/12/22 00:47:16;;;;;;;9.13;4.43;;;;;;;-2.22;74.12;95330.38;5015313;28;20262;-64
2021/12/22 00:49:41;;;;;;;7.10;4.53;;;;;;;-2.01;73.19;95346.47;5015013;28;20253;-60
2021/12/22 00:52:07;;;;;;;9.47;5.00;;;;;;;-2.15;73.52;95344.34;5015138;28;20208;-63
2021/12/22 00:54:32;;;;;;;10.23;5.40;;;;;;;-2.05;73.76;95348.22;5013512;28;20212;-61
2021/12/22 00:57:04;;;;;;;8.23;4.90;;;;;;;-2.03;73.66;95361.44;5015067;28;20214;-60
2021/12/22 00:59:32;;;;;;;9.33;5.37;;;;;;;-1.96;73.56;95362.13;5014865;28;20202;-63
2021/12/22 01:01:57;;;;;;;9.43;5.07;;;;;;;-1.92;72.88;95369.47;5014897;28;20287;-60
2021/12/22 01:04:23;;;;;;;6.23;4.20;;;;;;;-1.74;69.96;95418.03;5013984;28;20201;-60
2021/12/22 01:06:48;;;;;;;10.97;4.77;;;;;;;-1.73;71.54;95380.59;5014737;28;20210;-63
2021/12/22 01:09:14;;;;;;;6.43;3.73;;;;;;;-1.87;71.00;95377.66;4997345;28;20212;-64
2021/12/22 01:11:39;;;;;;;9.40;4.30;;;;;;;-1.75;71.99;95369.84;5014760;28;20220;-65
2021/12/22 01:14:05;;;;;;;7.17;3.90;;;;;;;-1.64;71.33;95381.22;5014565;28;20214;-64
2021/12/22 01:16:31;;;;;;;6.40;4.20;;;;;;;-1.92;70.96;95374.44;5014267;28;20214;-65
2021/12/22 01:19:01;;;;;;;6.83;3.47;;;;;;;-2.10;72.45;95347.50;5014531;28;20201;-64
2021/12/22 01:21:42;;;;;;;6.83;4.27;;;;;;;-2.06;73.08;95328.34;5014478;28;20253;-64
2021/12/22 01:24:15;;;;;;;9.37;4.20;;;;;;;-1.83;70.50;95389.16;5013122;28;20182;-64
2021/12/22 01:26:47;;;;;;;6.50;4.03;;;;;;;-2.13;71.69;95346.78;5014403;28;20214;-63
2021/12/22 01:29:14;;;;;;;5.50;3.40;;;;;;;-2.09;71.34;95345.84;4997131;28;20185;-59
2021/12/22 01:31:41;;;;;;;6.20;3.87;;;;;;;-2.17;71.10;95351.03;5014195;28;20328;-63
2021/12/22 01:34:07;;;;;;;9.90;4.00;;;;;;;-2.45;72.59;95322.69;5014390;28;20219;-66
2021/12/22 01:36:33;;;;;;;5.63;3.20;;;;;;;-2.38;71.67;95354.00;5013801;28;20684;-60
2021/12/22 01:38:58;;;;;;;5.33;3.20;;;;;;;-2.58;73.07;95316.34;5013994;28;20182;-61
2021/12/22 01:41:24;;;;;;;6.87;3.43;;;;;;;-2.72;74.22;95286.81;5013693;28;20752;-60
2021/12/22 01:43:50;;;;;;;6.13;3.27;;;;;;;-2.63;73.66;95318.94;5012736;28;20182;-63
2021/12/22 01:49:14;;;;;;;5.27;2.93;;;;;;;-2.57;72.88;95327.94;5014345;28;20230;-62
2021/12/22 01:51:56;;;;;;;6.83;3.33;;;;;;;-2.29;70.76;95371.22;5013573;28;20266;-64
2021/12/22 01:54:27;;;;;;;6.33;3.40;;;;;;;-2.41;71.42;95348.31;5013769;28;20226;-60
2021/12/22 01:56:54;;;;;;;9.20;4.00;;;;;;;-2.43;70.15;95369.91;5013972;28;20209;-64
2021/12/22 01:59:21;;;;;;;6.30;3.87;;;;;;;-2.38;70.33;95361.47;5013688;28;20175;-64
2021/12/22 02:01:47;;;;;;;7.27;3.57;;;;;;;-2.43;70.47;95355.81;5013612;28;20226;-63
2021/12/22 02:04:14;;;;;;;5.77;3.50;;;;;;;-2.51;71.56;95346.88;5012281;28;20175;-64
2021/12/22 02:06:49;;;;;;;6.07;3.50;;;;;;;-2.50;71.93;95326.94;5012297;28;20304;-60
2021/12/22 02:09:24;;;;;;;6.27;3.17;;;;;;;-2.40;69.90;95360.69;5013492;28;20177;-64
2021/12/22 02:11:49;;;;;;;4.67;3.27;;;;;;;-2.28;69.51;95377.84;5013258;28;20260;-62
2021/12/22 02:14:15;;;;;;;5.80;3.20;;;;;;;-2.32;70.16;95373.00;5013294;28;20243;-61
2021/12/22 02:16:41;;;;;;;4.37;3.40;;;;;;;-2.22;70.23;95375.19;5013303;28;20250;-63
2021/12/22 02:19:08;;;;;;;5.13;3.37;;;;;;;-2.24;69.76;95379.41;5013349;28;20180;-64
2021/12/22 02:21:41;;;;;;;7.47;4.10;;;;;;;-2.16;69.38;95380.03;5013218;28;20216;-60
2021/12/22 02:24:07;;;;;;;7.70;3.70;;;;;;;-2.26;69.43;95370.34;5012158;28;20182;-65
2021/12/22 02:26:48;;;;;;;6.87;3.73;;;;;;;-2.38;69.41;95361.47;5029506;23;20700;-64
2021/12/22 02:29:23;;;;;;;4.20;2.97;;;;;;;-2.49;70.44;95333.56;5033330;28;20544;-64
2021/12/22 02:32:04;;;;;;;6.63;3.60;;;;;;;-2.36;69.77;95356.50;5033342;28;20202;-64
2021/12/22 02:37:18;;;;;;;7.37;3.37;;;;;;;-2.53;69.77;95346.94;5032958;28;20221;-64
2021/12/22 02:39:48;;;;;;;6.57;3.87;;;;;;;-2.42;69.80;95352.44;5032518;28;20262;-64
2021/12/22 02:42:18;;;;;;;5.40;3.27;;;;;;;-2.44;70.03;95339.22;5033109;28;20224;-64
2021/12/22 02:44:43;;;;;;;7.60;3.90;;;;;;;-2.45;70.95;95325.16;5032748;28;20192;-61
2021/12/22 02:47:19;;;;;;;6.40;3.57;;;;;;;-2.60;71.00;95310.59;5032067;28;20206;-61
2021/12/22 02:49:45;;;;;;;5.87;4.10;;;;;;;-2.67;72.23;95276.78;5032368;28;20228;-63
2021/12/22 02:52:10;;;;;;;8.50;5.07;;;;;;;-2.63;72.67;95279.13;5032586;28;20297;-60
2021/12/22 02:54:42;;;;;;;11.20;5.17;;;;;;;-2.49;73.12;95270.53;5030822;28;20215;-63
2021/12/22 02:57:21;;;;;;;10.93;5.30;;;;;;;-2.21;72.16;95307.13;5032491;28;20580;-60
2021/12/22 03:00:12;;;;;;;11.30;5.37;;;;;;;-2.29;72.18;95293.25;5031121;28;20652;-64
2021/12/22 03:02:56;;;;;;;9.07;5.10;;;;;;;-2.47;74.64;95249.72;5031793;28;20215;-63
2021/12/22 03:05:25;;;;;;;7.90;4.57;;;;;;;-2.40;75.02;95245.44;5030910;28;20171;-64
2021/12/22 03:07:51;;;;;;;9.17;4.43;;;;;;;-2.37;74.40;95270.22;5030733;28;20197;-63
2021/12/22 03:10:18;;;;;;;11.17;4.00;;;;;;;-2.30;72.59;95299.88;5030682;28;20185;-63
2021/12/22 03:12:53;;;;;;;8.10;4.30;;;;;;;-2.32;72.35;95294.13;5031910;28;20185;-64
2021/12/22 03:15:19;;;;;;;9.03;3.40;;;;;;;-2.19;71.61;95310.41;5031783;28;20293;-64
2021/12/22 03:17:46;;;;;;;9.50;3.80;;;;;;;-2.11;70.47;95333.44;5030438;28;20174;-60
2021/12/22 03:20:14;;;;;;;6.33;3.63;;;;;;;-2.33;70.90;95327.34;5031885;28;20178;-64
2021/12/22 03:22:43;;;;;;;8.50;4.03;;;;;;;-2.70;71.83;95301.72;5031637;28;20186;-62
2021/12/22 03:25:14;;;;;;;6.53;3.77;;;;;;;-2.60;71.48;95308.91;5031569;28;20190;-62
2021/12/22 03:27:45;;;;;;;8.50;4.30;;;;;;;-2.66;72.77;95290.81;5032355;28;20186;-63
2021/12/22 03:30:12;;;;;;;9.23;4.13;;;;;;;-2.81;72.84;95296.19;5031595;28;20177;-64
2021/12/22 03:32:37;;;;;;;7.40;3.83;;;;;;;-3.00;72.72;95297.44;5032270;28;20183;-65
2021/12/22 03:35:04;;;;;;;9.63;4.23;;;;;;;-3.03;72.47;95292.53;5031781;28;20225;-60
2021/12/22 03:37:29;;;;;;;5.90;3.20;;;;;;;-3.02;72.19;95297.47;5031493;28;20210;-64
2021/12/22 03:39:55;;;;;;;6.13;3.23;;;;;;;-3.32;73.66;95268.31;5031665;28;20201;-63
2021/12/22 03:42:20;;;;;;;7.57;3.53;;;;;;;-3.15;73.27;95285.38;5030361;28;20635;-62
2021/12/22 03:44:45;;;;;;;7.07;3.30;;;;;;;-3.11;72.89;95296.88;5031477;28;20182;-63
2021/12/22 03:47:11;;;;;;;6.23;3.60;;;;;;;-3.23;72.31;95307.06;5031368;28;20202;-63
2021/12/22 03:49:37;;;;;;;4.47;3.40;;;;;;;-3.26;72.89;95292.22;5031226;28;20184;-61
2021/12/22 03:52:03;;;;;;;6.83;3.43;;;;;;;-3.38;72.92;95283.38;5031774;28;20286;-64
2021/12/22 03:54:29;;;;;;;6.00;3.27;;;;;;;-3.29;72.91;95298.06;5030204;28;20215;-65
2021/12/22 03:56:54;;;;;;;6.70;3.37;;;;;;;-3.36;72.68;95304.03;5031289;28;20210;-64
2021/12/22 03:59:20;;;;;;;6.97;3.20;;;;;;;-3.48;72.20;95304.28;5031380;28;20181;-59
2021/12/22 04:01:47;;;;;;;5.93;3.87;;;;;;;-3.44;73.21;95284.31;5030051;28;20209;-64
2021/12/22 04:04:16;;;;;;;5.07;3.30;;;;;;;-3.43;73.74;95266.06;5030074;28;20181;-65
2021/12/22 04:06:44;;;;;;;5.87;3.07;;;;;;;-3.15;72.26;95308.53;5031118;28;20211;-63
2021/12/22 04:09:10;;;;;;;7.77;3.20;;;;;;;-2.98;71.87;95323.09;5031278;28;20211;-63
2021/12/22 04:11:35;;;;;;;6.23;3.67;;;;;;;-3.12;72.84;95312.63;5031486;28;20268;-64
2021/12/22 04:14:01;;;;;;;5.90;3.57;;;;;;;-3.11;72.20;95319.25;5031302;28;20631;-66
2021/12/22 04:16:27;;;;;;;4.20;3.00;;;;;;;-3.14;73.07;95295.25;5031383;28;20621;-65
2021/12/22 04:18:53;;;;;;;6.17;3.40;;;;;;;-2.91;71.92;95329.56;5031126;28;20175;-63
2021/12/22 04:21:18;;;;;;;4.60;3.30;;;;;;;-2.99;73.02;95299.09;5031143;28;20236;-60
2021/12/22 04:23:44;;;;;;;5.87;3.23;;;;;;;-3.01;73.41;95295.81;5031043;28;20259;-60
2021/12/22 04:26:12;;;;;;;5.73;3.80;;;;;;;-2.89;73.07;95308.75;5030916;28;20267;-64
2021/12/22 04:28:39;;;;;;;5.90;4.20;;;;;;;-2.78;71.31;95354.13;5031286;28;20372;-62
2021/12/22 04:31:05;;;;;;;5.40;3.40;;;;;;;-2.97;70.83;95352.88;5030913;28;20210;-65
2021/12/22 04:33:30;;;;;;;6.37;3.30;;;;;;;-3.12;70.28;95377.25;5030858;28;20195;-64
2021/12/22 04:35:55;;;;;;;6.43;3.37;;;;;;;-3.35;70.99;95342.91;5029776;28;20683;-64
2021/12/22 04:38:21;;;;;;;5.10;3.20;;;;;;;-3.63;71.77;95330.25;5031126;28;20171;-60
2021/12/22 04:40:47;;;;;;;5.67;3.50;;;;;;;-3.60;71.62;95332.69;5031201;28;20202;-65
2021/12/22 04:43:13;;;;;;;3.70;2.73;;;;;;;-3.61;72.43;95303.72;5030963;28;20647;-64
2021/12/22 04:45:38;;;;;;;4.47;3.10;;;;;;;-3.58;73.05;95298.69;5030884;28;20204;-61
2021/12/22 04:48:04;;;;;;;3.90;3.00;;;;;;;-3.43;72.60;95317.41;5029653;28;20175;-65
2021/12/22 04:50:32;;;;;;;5.47;3.37;;;;;;;-3.52;72.96;95308.50;5029581;28;20342;-65
2021/12/22 04:53:04;;;;;;;9.67;3.03;;;;;;;-3.49;72.31;95327.47;5032034;28;20182;-67
2021/12/22 04:55:29;;;;;;;5.87;3.07;;;;;;;-3.40;71.76;95357.13;5031725;28;22124;-64
2021/12/22 04:57:56;;;;;;;6.70;2.80;;;;;;;-3.36;71.81;95347.94;5031202;28;20186;-66
2021/12/22 05:00:24;;;;;;;6.60;3.23;;;;;;;-3.67;72.06;95328.66;5031653;28;20270;-64
2021/12/22 05:02:50;;;;;;;5.07;2.87;;;;;;;-3.56;72.35;95328.47;5031738;28;20196;-63
2021/12/22 05:05:16;;;;;;;4.47;2.93;;;;;;;-3.78;72.79;95309.88;5029554;28;20192;-64
2021/12/22 05:07:43;;;;;;;3.60;2.80;;;;;;;-3.73;72.48;95321.34;5031134;28;20293;-65
2021/12/22 05:10:10;;;;;;;4.07;3.00;;;;;;;-3.80;72.41;95326.47;5031161;28;20189;-63
2021/12/22 05:12:35;;;;;;;3.50;2.33;;;;;;;-4.01;72.51;95332.63;5033953;28;20365;-63
2021/12/22 05:15:03;;;;;;;4.77;2.83;;;;;;;-4.23;73.95;95303.25;5032848;28;20305;-64
2021/12/22 05:20:15;;;;;;;4.93;2.87;;;;;;;-4.34;75.28;95283.59;5034215;28;20184;-64
2021/12/22 05:22:41;;;;;;;5.23;2.87;;;;;;;-4.41;75.85;95269.66;5033941;28;20244;-65
2021/12/22 05:25:09;;;;;;;5.07;3.27;;;;;;;-4.35;75.65;95277.81;5034083;28;20185;-63
2021/12/22 05:27:34;;;;;;;6.73;3.43;;;;;;;-4.08;75.83;95290.59;5034363;28;20211;-65
2021/12/22 05:30:01;;;;;;;4.17;2.77;;;;;;;-3.99;75.36;95307.78;5032467;28;20185;-64
2021/12/22 05:32:32;;;;;;;5.53;3.50;;;;;;;-3.88;74.44;95323.31;5034386;28;20655;-64
2021/12/22 05:35:03;;;;;;;5.43;3.17;;;;;;;-3.81;74.01;95324.81;5032598;28;20206;-64
2021/12/22 05:37:29;;;;;;;4.23;3.20;;;;;;;-3.81;73.63;95340.53;5033597;28;20688;-62
2021/12/22 05:39:56;;;;;;;4.87;3.03;;;;;;;-3.73;73.93;95327.97;5032667;28;20190;-61
2021/12/22 05:42:25;;;;;;;5.23;2.53;;;;;;;-4.04;72.98;95347.56;5034049;28;20291;-66
2021/12/22 05:44:51;;;;;;;5.70;3.10;;;;;;;-4.14;75.94;95291.50;5033852;28;20186;-65
2021/12/22 05:47:17;;;;;;;6.07;3.43;;;;;;;-4.05;76.08;95302.91;5032199;28;20726;-64
2021/12/22 05:49:48;;;;;;;8.33;3.60;;;;;;;-3.96;75.57;95306.03;5034032;28;20186;-65
2021/12/22 05:52:13;;;;;;;10.67;3.47;;;;;;;-3.84;75.74;95300.88;5034238;28;20216;-64
2021/12/22 05:54:39;;;;;;;6.43;3.77;;;;;;;-3.80;74.66;95309.91;5033549;28;20213;-61
2021/12/22 05:57:05;;;;;;;4.50;2.70;;;;;;;-3.70;73.75;95348.59;5034174;28;20592;-64
2021/12/22 05:59:31;;;;;;;4.83;2.87;;;;;;;-3.75;73.34;95365.25;5033922;28;20214;-64
2021/12/22 06:01:56;;;;;;;7.50;3.00;;;;;;;-3.74;73.85;95347.03;5033750;28;20240;-65
2021/12/22 06:04:22;;;;;;;5.10;3.17;;;;;;;-3.75;72.45;95369.38;5033516;28;20185;-64
2021/12/22 06:06:48;;;;;;;5.27;3.50;;;;;;;-3.79;72.83;95357.88;5033472;28;20214;-66
2021/12/22 06:09:13;;;;;;;7.77;3.53;;;;;;;-3.88;72.98;95361.34;5032247;28;20268;-62
2021/12/22 06:11:39;;;;;;;6.63;3.23;;;;;;;-3.92;73.84;95342.38;5033722;28;20581;-65
2021/12/22 06:14:04;;;;;;;5.73;3.17;;;;;;;-3.82;73.58;95340.56;5033180;28;20182;-63
2021/12/22 06:16:30;;;;;;;8.60;3.70;;;;;;;-3.77;73.26;95351.22;5033248;28;20221;-65
2021/12/22 06:19:01;;;;;;;6.50;3.77;;;;;;;-3.65;74.27;95341.03;5031896;28;20641;-62
2021/12/22 06:21:27;;;;;;;9.43;3.67;;;;;;;-3.43;83.24;95287.59;5032761;28;20206;-61
2021/12/22 06:23:52;;;;;;;20.20;3.87;;;;;;;-3.16;78.36;95369.06;5032782;28;20188;-63
2021/12/22 06:26:18;;;;;;;15.50;3.60;;;;;;;-3.21;73.60;95408.09;5033200;28;20271;-63
2021/12/22 06:28:44;;;;;;;5.83;3.20;;;;;;;-3.26;72.60;95432.22;5031721;28;20636;-65
2021/12/22 06:31:09;;;;;;;6.30;3.57;;;;;;;-3.52;72.14;95426.94;5031344;28;20209;-65
2021/12/22 06:33:35;;;;;;;5.43;2.40;;;;;;;-3.64;72.30;95423.00;5032853;28;20177;-65
2021/12/22 06:36:01;;;;;;;5.70;3.63;;;;;;;-3.72;72.65;95402.47;5032788;28;20241;-64
2021/12/22 06:38:27;;;;;;;9.07;3.30;;;;;;;-3.75;72.96;95404.16;5033044;28;20183;-61
2021/12/22 06:40:53;;;;;;;5.30;2.90;;;;;;;-3.83;72.79;95379.47;5032836;28;20578;-62
2021/12/22 06:43:18;;;;;;;6.73;3.77;;;;;;;-3.67;72.72;95405.66;5031419;28;20185;-61
2021/12/22 06:45:44;;;;;;;6.20;3.40;;;;;;;-3.78;73.15;95400.09;5032464;28;20263;-64
2021/12/22 06:48:10;;;;;;;6.30;3.60;;;;;;;-3.62;72.76;95398.97;5032386;28;20272;-64
2021/12/22 06:50:35;;;;;;;9.33;4.40;;;;;;;-3.59;72.85;95401.38;5032796;28;20613;-64
2021/12/22 06:53:01;;;;;;;8.70;4.40;;;;;;;-3.49;72.76;95409.47;5032428;28;20297;-60
2021/12/22 06:55:27;;;;;;;8.53;3.93;;;;;;;-3.25;72.59;95425.59;5032415;28;20212;-61
2021/12/22 06:57:53;;;;;;;9.63;3.53;;;;;;;-3.26;70.92;95448.78;5032352;28;20179;-64
2021/12/22 07:00:18;;;;;;;7.30;3.73;;;;;;;-3.15;72.02;95439.47;5032286;28;20663;-64
2021/12/22 07:02:44;;;;;;;9.50;3.83;;;;;;;-3.07;71.80;95425.22;5032704;28;20196;-65
2021/12/22 07:05:11;;;;;;;12.53;4.43;;;;;;;-2.82;71.47;95441.28;5032224;28;20201;-61
2021/12/22 07:07:37;;;;;;;8.23;4.20;;;;;;;-2.63;70.94;95440.03;5032204;28;20174;-61
2021/12/22 07:10:07;;;;;;;9.20;3.87;;;;;;;-2.41;71.58;95433.75;5032283;28;20189;-64
2021/12/22 07:12:39;;;;;;;6.17;3.60;;;;;;;-2.30;71.99;95423.56;5030716;28;20226;-65
2021/12/22 07:15:05;;;;;;;6.03;3.40;;;;;;;-2.14;71.58;95450.53;5032088;28;20374;-66
2021/12/22 07:17:31;;;;;;;8.60;4.40;;;;;;;-2.03;69.41;95473.53;5032069;28;20227;-62
2021/12/22 07:19:57;;;;;;;6.23;3.67;;;;;;;-1.82;68.63;95497.13;5032032;28;20176;-65
2021/12/22 07:22:22;;;;;;;10.80;4.20;;;;;;;-1.76;69.99;95457.91;5032366;28;20213;-64
2021/12/22 07:24:48;;;;;;;11.37;5.00;;;;;;;-1.65;71.35;95434.38;5031985;28;20661;-64
2021/12/22 07:27:13;;;;;;;17.10;6.37;;;;;;;-1.42;71.09;95450.41;5032357;28;20219;-65
2021/12/22 07:29:41;;;;;;;17.57;8.60;;;;;;;-1.36;70.62;95447.75;5031947;28;20656;-64
2021/12/22 07:32:07;;;;;;;20.20;6.97;;;;;;;-1.48;69.16;95465.53;5032312;28;20199;-66
2021/12/22 07:34:46;;;;;;;15.90;7.90;;;;;;;-1.37;68.95;95468.56;5031774;28;20201;-65
2021/12/22 07:37:36;;;;;;;12.50;6.57;;;;;;;-0.97;69.24;95471.63;5032772;28;20201;-63
2021/12/22 07:40:04;;;;;;;13.10;5.87;;;;;;;-0.73;68.13;95491.78;5031888;28;20328;-66
2021/12/22 07:42:29;;;;;;;14.40;6.97;;;;;;;-0.45;67.43;95500.97;5032080;28;20243;-66
2021/12/22 07:44:55;;;;;;;9.97;5.83;;;;;;;-0.14;67.25;95519.16;5031544;28;20247;-66
2021/12/22 07:47:20;;;;;;;14.67;6.23;;;;;;;-0.07;66.59;95514.81;5032234;28;20208;-64
2021/12/22 07:49:46;;;;;;;16.13;6.07;;;;;;;-0.01;65.29;95534.63;5031836;28;20184;-65
2021/12/22 07:52:11;;;;;;;16.60;6.50;;;;;;;-0.03;65.64;95518.84;5025367;23;20613;-65
2021/12/22 07:54:39;;;;;;;10.50;6.17;;;;;;;-0.03;65.16;95532.19;5011882;28;20209;-61
2021/12/22 07:57:05;;;;;;;12.87;7.27;;;;;;;-0.19;66.31;95492.69;5011983;28;20209;-65
2021/12/22 07:59:31;;;;;;;11.33;6.73;;;;;;;-0.23;66.93;95482.00;5010347;28;20240;-61
2021/12/22 08:01:57;;;;;;;12.20;6.13;;;;;;;-0.26;66.87;95484.56;5011848;28;20206;-65
2021/12/22 08:04:23;;;;;;;13.63;5.57;;;;;;;-0.41;68.20;95450.06;5021437;23;20255;-64
2021/12/22 08:06:48;;;;;;;13.07;5.97;;;;;;;-0.38;70.14;95424.16;5031323;28;20197;-64
2021/12/22 08:09:14;;;;;;;12.10;5.33;;;;;;;-0.35;68.09;95459.03;5031602;28;20284;-64
2021/12/22 08:11:39;;;;;;;13.17;5.73;;;;;;;-0.22;67.14;95485.28;5031382;28;20221;-60
2021/12/22 08:14:07;;;;;;;10.83;6.00;;;;;;;-0.41;67.58;95481.72;5031693;28;20171;-64
2021/12/22 08:16:35;;;;;;;10.00;5.43;;;;;;;-0.29;66.75;95488.84;5031491;28;20200;-61
2021/12/22 08:19:01;;;;;;;9.50;4.60;;;;;;;-0.52;67.40;95479.50;5031558;28;20630;-64
2021/12/22 08:21:26;;;;;;;10.60;4.87;;;;;;;-0.38;67.50;95489.09;5031329;28;20684;-65
2021/12/22 08:23:55;;;;;;;10.73;4.87;;;;;;;-0.18;67.39;95495.13;5031516;28;20216;-64
2021/12/22 08:26:20;;;;;;;9.50;5.33;;;;;;;0.12;67.30;95492.59;5031337;28;20683;-63
2021/12/22 08:28:49;;;;;;;9.23;4.80;;;;;;;0.59;64.02;95574.41;5031323;28;20649;-65
2021/12/22 08:31:14;;;;;;;7.57;4.87;;;;;;;1.15;61.82;95613.44;5031079;28;20312;-64
2021/12/22 08:33:44;;;;;;;9.10;5.07;;;;;;;1.45;60.25;95624.16;5031198;28;20183;-61
2021/12/22 08:38:54;;;;;;;10.17;5.70;;;;;;;1.97;59.15;95634.00;5031540;28;20201;-64
2021/12/22 08:41:20;;;;;;;11.80;6.30;;;;;;;2.10;58.91;95624.34;5031247;28;20303;-62
2021/12/22 08:43:45;;;;;;;12.70;6.37;;;;;;;2.18;59.16;95614.84;5031353;28;20208;-64
2021/12/22 08:46:11;;;;;;;15.43;6.07;;;;;;;2.17;58.29;95625.75;5031266;28;20218;-64
2021/12/22 08:48:37;;;;;;;10.70;5.53;;;;;;;1.92;59.49;95607.47;5034967;28;20189;-63
2021/12/22 08:51:02;;;;;;;11.63;6.50;;;;;;;1.34;60.80;95554.38;5034986;28;20702;-60
2021/12/22 08:53:28;;;;;;;7.33;5.30;;;;;;;1.51;61.04;95577.16;5034723;28;20179;-60
2021/12/22 08:55:53;;;;;;;10.80;6.67;;;;;;;1.91;61.18;95559.00;5034447;28;20222;-60
2021/12/22 08:58:19;;;;;;;13.70;6.77;;;;;;;2.40;60.58;95590.59;5034772;28;20191;-65
2021/12/22 09:00:45;;;;;;;14.50;8.27;;;;;;;2.78;59.51;95606.69;5034726;28;20210;-64
2021/12/22 09:03:10;;;;;;;12.37;7.63;;;;;;;2.74;59.27;95612.69;5034415;28;20620;-65
2021/12/22 09:05:40;;;;;;;18.87;10.70;;;;;;;2.49;57.47;95641.25;5034924;28;20268;-65
2021/12/22 09:08:05;;;;;;;22.77;11.03;;;;;;;2.23;59.71;95570.34;5035015;28;20272;-65
2021/12/22 09:10:31;;;;;;;18.80;9.77;;;;;;;1.94;59.59;95580.66;5035161;28;20376;-65
2021/12/22 09:12:57;;;;;;;15.63;8.17;;;;;;;1.84;60.28;95565.09;5034396;28;20279;-64
2021/12/22 09:15:22;;;;;;;17.60;8.43;;;;;;;2.04;58.78;95617.03;5034735;28;20241;-64
2021/12/22 09:17:48;;;;;;;26.47;11.70;;;;;;;1.62;60.35;95552.53;5033010;28;20220;-64
2021/12/22 09:20:14;;;;;;;21.87;12.17;;;;;;;1.60;60.71;95549.28;5034128;28;20233;-65
2021/12/22 09:22:42;;;;;;;22.97;13.73;;;;;;;1.69;60.94;95551.47;5034493;28;20563;-66
2021/12/22 09:25:12;;;;;;;22.50;13.80;;;;;;;1.88;59.92;95564.13;5033447;28;20182;-62
2021/12/22 09:27:39;;;;;;;25.33;14.73;;;;;;;1.93;60.93;95543.91;5034458;28;20627;-64
2021/12/22 09:30:05;;;;;;;27.87;13.47;;;;;;;2.12;60.70;95548.16;5034830;28;20269;-61
2021/12/22 09:32:31;;;;;;;24.23;14.63;;;;;;;2.43;59.58;95570.41;5034177;28;20706;-64
2021/12/22 09:34:57;;;;;;;22.37;12.17;;;;;;;2.73;58.01;95624.41;5034705;28;20290;-60
2021/12/22 09:37:22;;;;;;;27.97;12.03;;;;;;;2.80;57.56;95605.75;5034134;28;20502;-65
2021/12/22 09:39:49;;;;;;;24.50;11.80;;;;;;;2.94;58.67;95598.47;5033027;28;20643;-61
2021/12/22 09:42:18;;;;;;;24.63;12.93;;;;;;;2.75;56.33;95620.16;5033049;28;20198;-62
2021/12/22 09:44:46;;;;;;;20.17;11.87;;;;;;;2.71;55.83;95632.91;5041654;22;20283;-65
2021/12/22 09:47:23;;;;;;;25.07;11.73;;;;;;;3.00;55.59;95637.59;5042721;22;20711;-64
2021/12/22 09:50:06;;;;;;;26.43;13.07;;;;;;;3.44;55.29;95649.19;5032394;28;20675;-63
2021/12/22 09:52:33;;;;;;;21.80;10.73;;;;;;;3.56;54.17;95643.66;5033883;28;20205;-65
2021/12/22 09:54:59;;;;;;;21.23;10.73;;;;;;;3.39;55.15;95619.19;5033834;28;20248;-64
2021/12/22 09:57:26;;;;;;;20.13;10.83;;;;;;;3.42;54.88;95626.63;5032364;28;20686;-60
2021/12/22 09:59:54;;;;;;;20.70;12.17;;;;;;;3.65;53.91;95638.25;5032325;28;20244;-65
2021/12/22 10:02:22;;;;;;;22.77;11.23;;;;;;;4.17;52.98;95662.78;5033860;28;20203;-64
2021/12/22 10:04:48;;;;;;;19.13;10.77;;;;;;;4.03;52.97;95647.47;5016042;28;20179;-62
2021/12/22 10:07:20;;;;;;;19.47;10.67;;;;;;;4.08;52.36;95653.13;5033754;28;20642;-61
2021/12/22 10:09:47;;;;;;;18.73;10.70;;;;;;;3.89;51.91;95649.78;5033386;28;20521;-64
2021/12/22 10:12:18;;;;;;;16.17;10.60;;;;;;;3.60;52.28;95644.31;5033320;28;20202;-65
2021/12/22 10:14:49;;;;;;;20.70;10.90;;;;;;;3.62;53.26;95618.25;5033216;28;20237;-60
2021/12/22 10:17:27;;;;;;;17.43;9.87;;;;;;;3.73;52.43;95635.41;5033455;28;20529;-65
2021/12/22 10:19:57;;;;;;;19.20;10.40;;;;;;;4.10;53.69;95601.03;5033175;28;20162;-65
2021/12/22 10:22:29;;;;;;;20.83;13.03;;;;;;;4.18;52.36;95613.28;5033450;28;20237;-60
2021/12/22 10:25:03;;;;;;;21.70;11.77;;;;;;;4.37;51.84;95645.97;5033244;28;20175;-65
2021/12/22 10:27:29;;;;;;;26.07;11.87;;;;;;;4.50;51.71;95635.31;5033296;28;20724;-63
2021/12/22 10:29:55;;;;;;;20.53;11.37;;;;;;;4.32;51.86;95625.25;5033275;28;20174;-66
2021/12/22 10:32:20;;;;;;;22.10;10.87;;;;;;;4.36;51.64;95636.81;5033243;28;20207;-65
2021/12/22 10:35:00;;;;;;;19.43;11.93;;;;;;;4.52;51.45;95631.03;5031833;28;20215;-65
2021/12/22 10:37:39;;;;;;;17.37;11.13;;;;;;;4.00;52.69;95604.84;5033331;28;20643;-64
2021/12/22 10:40:31;;;;;;;20.23;11.70;;;;;;;4.14;52.59;95607.56;5033016;28;20176;-66
2021/12/22 10:42:57;;;;;;;23.73;12.20;;;;;;;4.21;51.93;95618.19;5031840;28;20199;-61
2021/12/22 10:45:26;;;;;;;20.53;11.80;;;;;;;3.70;53.36;95580.22;5032543;28;20685;-66
2021/12/22 10:50:59;;;;;;;20.97;11.40;;;;;;;3.82;53.17;95569.63;5033148;28;20267;-62
2021/12/22 10:53:26;;;;;;;24.93;12.33;;;;;;;3.42;54.82;95513.53;5031748;28;20281;-65
2021/12/22 10:55:59;;;;;;;23.53;12.57;;;;;;;3.31;54.89;95529.97;5031001;28;20220;-64
2021/12/22 10:58:30;;;;;;;23.33;12.37;;;;;;;3.21;54.68;95519.47;5033107;28;20201;-61
2021/12/22 11:01:18;;;;;;;19.07;11.57;;;;;;;3.05;55.36;95503.41;5031723;23;20230;-63
2021/12/22 11:03:50;;;;;;;20.33;12.10;;;;;;;2.95;55.73;95489.63;5012702;28;20191;-65
2021/12/22 11:06:22;;;;;;;25.27;11.83;;;;;;;3.10;56.18;95470.59;5011497;28;20215;-63
2021/12/22 11:09:02;;;;;;;24.60;13.50;;;;;;;3.03;55.84;95495.13;5010576;28;20241;-65
2021/12/22 11:11:39;;;;;;;21.60;12.77;;;;;;;2.85;55.70;95470.00;5012414;28;20214;-64
2021/12/22 11:14:06;;;;;;;30.57;13.03;;;;;;;3.07;56.06;95489.09;5012850;28;20300;-62
2021/12/22 11:16:32;;;;;;;23.70;13.63;;;;;;;3.13;55.93;95483.03;5012381;28;20203;-64
2021/12/22 11:19:10;;;;;;;24.40;12.50;;;;;;;3.23;54.98;95490.09;5012272;28;20266;-62
2021/12/22 11:21:52;;;;;;;23.57;11.90;;;;;;;3.40;55.90;95477.63;5012548;28;20299;-64
2021/12/22 11:24:18;;;;;;;22.80;12.43;;;;;;;3.13;55.11;95468.75;5011022;28;20660;-64
2021/12/22 11:26:44;;;;;;;19.83;11.77;;;;;;;3.15;55.76;95476.25;5010819;28;20221;-65
2021/12/22 11:29:11;;;;;;;23.60;13.23;;;;;;;2.58;57.70;95431.78;5012412;28;20179;-64
2021/12/22 11:31:37;;;;;;;23.50;13.37;;;;;;;2.46;57.75;95412.22;5012611;28;20607;-60
2021/12/22 11:34:03;;;;;;;24.33;13.03;;;;;;;2.59;57.94;95410.81;5012194;28;20229;-64
2021/12/22 11:36:28;;;;;;;22.97;14.07;;;;;;;2.86;56.88;95449.03;5012380;28;20621;-61
2021/12/22 11:38:56;;;;;;;26.30;13.53;;;;;;;2.78;57.84;95425.94;5012474;28;20267;-64
2021/12/22 11:41:21;;;;;;;24.33;14.43;;;;;;;2.42;58.23;95410.72;5010980;28;20652;-64
2021/12/22 11:43:48;;;;;;;25.50;14.03;;;;;;;2.47;59.52;95373.72;5012185;28;20213;-63
2021/12/22 11:46:15;;;;;;;25.37;14.57;;;;;;;2.80;58.99;95386.53;5010618;28;20242;-64
2021/12/22 11:48:42;;;;;;;27.10;14.50;;;;;;;2.73;57.92;95426.13;5012107;28;20179;-61